createdAt,value
2023-12-07T00:01:03.008Z,13.90
2023-12-07T00:03:08.449Z,14.33
2023-12-07T00:05:12.273Z,14.53
2023-12-07T00:07:17.402Z,13.20
2023-12-07T00:09:21.366Z,14.90
2023-12-07T00:11:25.559Z,12.83
2023-12-07T00:16:55.449Z,16.53
2023-12-07T00:19:00.941Z,15.07
2023-12-07T00:21:03.503Z,14.83
2023-12-07T00:23:50.857Z,13.33
2023-12-07T00:25:56.006Z,13.67
2023-12-07T00:27:59.737Z,14.90
2023-12-07T00:30:03.153Z,15.57
2023-12-07T00:32:07.148Z,12.87
2023-12-07T00:34:13.449Z,18.37
2023-12-07T00:36:17.924Z,21.83
2023-12-07T00:38:26.565Z,19.77
2023-12-07T00:40:30.149Z,19.53
2023-12-07T00:42:32.640Z,18.90
2023-12-07T00:44:55.231Z,15.77
2023-12-07T00:46:58.940Z,18.77
2023-12-07T00:49:02.852Z,14.57
2023-12-07T00:51:08.436Z,13.50
2023-12-07T00:53:21.544Z,12.37
2023-12-07T00:55:24.108Z,13.50
2023-12-07T00:57:27.734Z,13.13
2023-12-07T00:59:35.457Z,15.10
2023-12-07T01:01:40.125Z,15.90
2023-12-07T01:03:42.925Z,19.30
2023-12-07T01:05:47.000Z,19.37
2023-12-07T01:07:52.494Z,13.60
2023-12-07T01:09:56.200Z,12.90
2023-12-07T01:12:00.565Z,15.67
2023-12-07T01:14:05.575Z,16.67
2023-12-07T01:16:09.538Z,21.57
2023-12-07T01:18:13.217Z,21.43
2023-12-07T01:20:17.244Z,16.10
2023-12-07T01:22:19.737Z,16.47
2023-12-07T01:24:27.311Z,14.33
2023-12-07T01:26:30.799Z,15.20
2023-12-07T01:28:35.228Z,16.03
2023-12-07T01:30:39.041Z,17.70
2023-12-07T01:32:42.945Z,17.83
2023-12-07T01:35:01.440Z,15.53
2023-12-07T01:37:09.138Z,13.30
2023-12-07T01:39:14.102Z,16.97
2023-12-07T01:41:19.634Z,22.20
2023-12-07T01:43:31.575Z,16.50
2023-12-07T01:45:35.000Z,12.27
2023-12-07T01:47:38.686Z,13.00
2023-12-07T01:49:44.045Z,14.20
2023-12-07T01:51:47.726Z,13.30
2023-12-07T01:53:53.463Z,18.70
2023-12-07T01:55:56.887Z,18.30
2023-12-07T01:58:01.636Z,16.60
2023-12-07T02:00:05.559Z,14.73
2023-12-07T02:02:09.192Z,15.67
2023-12-07T02:04:13.072Z,13.33
2023-12-07T02:06:16.397Z,13.03
2023-12-07T02:08:19.769Z,13.67
2023-12-07T02:10:23.602Z,9.73
2023-12-07T02:12:27.721Z,10.20
2023-12-07T02:14:39.359Z,8.77
2023-12-07T02:16:45.550Z,7.20
2023-12-07T02:18:52.275Z,8.23
2023-12-07T02:20:58.811Z,7.97
2023-12-07T02:23:04.137Z,6.87
2023-12-07T02:25:08.601Z,7.63
2023-12-07T02:27:18.451Z,7.33
2023-12-07T02:29:21.880Z,9.60
2023-12-07T02:31:28.004Z,8.17
2023-12-07T02:33:32.684Z,8.73
2023-12-07T02:35:37.717Z,15.47
2023-12-07T02:37:42.996Z,18.93
2023-12-07T02:39:47.022Z,12.07
2023-12-07T02:41:50.422Z,49.40
2023-12-07T02:43:56.654Z,14.73
2023-12-07T02:46:00.418Z,12.40
2023-12-07T02:48:03.834Z,11.13
2023-12-07T02:50:08.114Z,9.20
2023-12-07T02:52:11.632Z,10.77
2023-12-07T02:54:16.243Z,13.60
2023-12-07T02:56:19.658Z,10.57
2023-12-07T02:58:41.232Z,12.07
2023-12-07T03:00:46.296Z,13.03
2023-12-07T03:02:52.341Z,10.87
2023-12-07T03:04:55.840Z,13.23
2023-12-07T03:06:59.552Z,13.87
2023-12-07T03:09:03.050Z,12.87
2023-12-07T03:11:07.595Z,12.63
2023-12-07T03:13:11.508Z,13.63
2023-12-07T03:15:15.328Z,15.47
2023-12-07T03:17:20.380Z,14.87
2023-12-07T03:19:23.975Z,15.00
2023-12-07T03:21:27.696Z,16.63
2023-12-07T03:23:31.638Z,17.07
2023-12-07T03:25:35.087Z,15.50
2023-12-07T03:27:38.680Z,13.00
2023-12-07T03:29:42.292Z,14.13
2023-12-07T03:31:45.713Z,14.63
2023-12-07T03:33:51.084Z,17.07
2023-12-07T03:35:54.055Z,15.13
2023-12-07T03:37:57.668Z,16.03
2023-12-07T03:40:01.081Z,15.03
2023-12-07T03:42:04.987Z,16.00
2023-12-07T03:44:29.129Z,17.77
2023-12-07T03:46:32.853Z,18.13
2023-12-07T03:48:36.678Z,17.40
2023-12-07T03:50:41.737Z,16.13
2023-12-07T03:52:45.505Z,14.87
2023-12-07T03:54:48.332Z,16.30
2023-12-07T03:56:51.803Z,15.70
2023-12-07T03:58:55.422Z,16.50
2023-12-07T04:00:59.061Z,17.30
2023-12-07T04:03:03.040Z,14.03
2023-12-07T04:05:07.351Z,15.57
2023-12-07T04:07:12.329Z,19.17
2023-12-07T04:09:15.876Z,18.20
2023-12-07T04:11:19.209Z,18.60
2023-12-07T04:13:23.106Z,16.67
2023-12-07T04:15:25.545Z,15.57
2023-12-07T04:17:29.548Z,20.03
2023-12-07T04:19:33.087Z,18.67
2023-12-07T04:21:36.745Z,19.70
2023-12-07T04:23:41.966Z,14.40
2023-12-07T04:25:45.557Z,17.87
2023-12-07T04:27:49.010Z,15.93
2023-12-07T04:29:52.468Z,17.40
2023-12-07T04:31:55.867Z,21.63
2023-12-07T04:34:01.071Z,16.93
2023-12-07T04:36:05.893Z,17.37
2023-12-07T04:38:09.477Z,17.07
2023-12-07T04:40:13.919Z,18.73
2023-12-07T04:42:17.778Z,18.27
2023-12-07T04:44:21.602Z,18.67
2023-12-07T04:46:25.191Z,21.67
2023-12-07T04:48:28.734Z,18.00
2023-12-07T04:50:31.306Z,18.43
2023-12-07T04:52:36.772Z,18.37
2023-12-07T04:54:40.833Z,19.67
2023-12-07T04:56:45.984Z,17.93
2023-12-07T04:58:49.742Z,14.73
2023-12-07T05:00:53.860Z,20.83
2023-12-07T05:02:57.766Z,20.20
2023-12-07T05:05:01.580Z,18.97
2023-12-07T05:07:05.494Z,16.13
2023-12-07T05:09:10.717Z,17.83
2023-12-07T05:11:14.280Z,21.07
2023-12-07T05:13:20.702Z,23.93
2023-12-07T05:15:24.142Z,22.17
2023-12-07T05:17:27.552Z,18.33
2023-12-07T05:19:31.208Z,19.57
2023-12-07T05:21:35.001Z,26.70
2023-12-07T05:23:40.070Z,18.37
2023-12-07T05:25:43.718Z,21.43
2023-12-07T05:27:47.211Z,19.67
2023-12-07T05:29:51.920Z,20.17
2023-12-07T05:31:55.453Z,22.77
2023-12-07T05:33:59.448Z,23.50
2023-12-07T05:36:04.969Z,21.17
2023-12-07T05:38:08.569Z,21.83
2023-12-07T05:40:14.284Z,21.70
2023-12-07T05:42:17.725Z,19.90
2023-12-07T05:44:23.678Z,21.23
2023-12-07T05:46:28.597Z,20.20
2023-12-07T05:48:32.155Z,22.40
2023-12-07T05:50:35.780Z,18.20
2023-12-07T05:52:39.460Z,19.80
2023-12-07T05:54:44.784Z,17.93
2023-12-07T05:56:48.229Z,23.17
2023-12-07T05:58:52.217Z,16.30
2023-12-07T06:00:59.427Z,22.83
2023-12-07T06:03:06.789Z,20.97
2023-12-07T06:05:12.674Z,17.30
2023-12-07T06:07:18.495Z,20.20
2023-12-07T06:09:22.130Z,19.57
2023-12-07T06:11:25.804Z,18.77
2023-12-07T06:13:29.244Z,17.33
2023-12-07T06:15:32.968Z,18.07
2023-12-07T06:17:36.730Z,19.57
2023-12-07T06:19:41.874Z,21.90
2023-12-07T06:22:11.981Z,19.07
2023-12-07T06:24:26.054Z,18.03
2023-12-07T06:26:42.068Z,22.37
2023-12-07T06:28:59.235Z,18.23
2023-12-07T06:31:07.819Z,17.37
2023-12-07T06:33:10.766Z,22.20
2023-12-07T06:35:17.163Z,17.57
2023-12-07T06:37:21.451Z,19.80
2023-12-07T06:39:24.826Z,18.90
2023-12-07T06:41:30.537Z,18.17
2023-12-07T06:43:41.039Z,22.17
2023-12-07T06:45:44.653Z,21.73
2023-12-07T06:47:48.332Z,17.17
2023-12-07T06:49:53.288Z,19.93
2023-12-07T06:51:58.858Z,20.03
2023-12-07T06:54:02.609Z,22.63
2023-12-07T06:56:06.125Z,17.80
2023-12-07T06:58:11.372Z,18.53
2023-12-07T07:00:15.699Z,21.47
2023-12-07T07:02:19.371Z,21.30
2023-12-07T07:04:23.188Z,19.37
2023-12-07T07:06:26.663Z,19.30
2023-12-07T07:08:31.622Z,23.07
2023-12-07T07:10:35.793Z,26.63
2023-12-07T07:12:39.527Z,20.20
2023-12-07T07:14:44.241Z,22.77
2023-12-07T07:16:47.829Z,23.23
2023-12-07T07:18:51.575Z,30.50
2023-12-07T07:20:55.045Z,29.13
2023-12-07T07:22:58.853Z,24.23
2023-12-07T07:25:04.372Z,27.37
2023-12-07T07:27:08.043Z,19.57
2023-12-07T07:29:11.912Z,17.23
2023-12-07T07:31:15.456Z,18.90
2023-12-07T07:33:19.432Z,19.53
2023-12-07T07:35:23.297Z,19.73
2023-12-07T07:37:27.415Z,23.87
2023-12-07T07:39:31.275Z,20.27
2023-12-07T07:41:37.121Z,19.30
2023-12-07T07:43:41.173Z,19.77
2023-12-07T07:45:45.118Z,21.40
2023-12-07T07:47:48.734Z,19.47
2023-12-07T07:49:52.606Z,20.30
2023-12-07T07:51:56.653Z,19.07
2023-12-07T07:53:59.837Z,16.37
2023-12-07T07:56:03.376Z,15.80
2023-12-07T07:58:11.993Z,20.03
2023-12-07T08:00:16.929Z,18.33
2023-12-07T08:02:20.487Z,17.47
2023-12-07T08:04:24.693Z,18.40
2023-12-07T08:06:28.186Z,21.83
2023-12-07T08:08:31.844Z,17.53
2023-12-07T08:10:50.094Z,16.97
2023-12-07T08:12:59.362Z,19.10
2023-12-07T08:15:03.527Z,16.63
2023-12-07T08:17:07.173Z,17.53
2023-12-07T08:19:11.001Z,21.77
2023-12-07T08:21:24.577Z,18.10
2023-12-07T08:23:31.552Z,16.27
2023-12-07T08:25:35.261Z,17.80
2023-12-07T08:27:39.822Z,34.37
2023-12-07T08:29:43.872Z,127.60
2023-12-07T08:31:49.339Z,23.50
2023-12-07T08:33:53.770Z,17.40
2023-12-07T08:35:58.306Z,34.30
2023-12-07T08:38:02.360Z,58.30
2023-12-07T08:40:05.786Z,21.67
2023-12-07T08:42:09.319Z,25.70
2023-12-07T08:44:12.715Z,25.13
2023-12-07T08:46:16.309Z,28.67
2023-12-07T08:48:22.030Z,26.53
2023-12-07T08:50:24.960Z,26.20
2023-12-07T08:52:40.172Z,33.93
2023-12-07T08:54:49.562Z,28.57
2023-12-07T08:56:53.896Z,30.17
2023-12-07T08:58:57.591Z,28.93
2023-12-07T09:01:01.442Z,32.53
2023-12-07T09:03:05.649Z,28.60
2023-12-07T09:05:10.748Z,32.37
2023-12-07T09:07:18.082Z,26.07
2023-12-07T09:09:23.715Z,29.77
2023-12-07T09:11:27.154Z,27.30
2023-12-07T09:13:32.989Z,30.70
2023-12-07T09:15:38.656Z,28.57
2023-12-07T09:17:41.838Z,27.93
2023-12-07T09:19:47.306Z,24.83
2023-12-07T09:21:52.341Z,23.97
2023-12-07T09:23:55.073Z,23.20
2023-12-07T09:25:58.800Z,22.63
2023-12-07T09:28:02.434Z,27.57
2023-12-07T09:30:12.665Z,24.37
2023-12-07T09:32:17.527Z,25.87
2023-12-07T09:34:26.295Z,27.47
2023-12-07T09:36:29.764Z,23.97
2023-12-07T09:38:34.776Z,26.03
2023-12-07T09:40:38.398Z,25.33
2023-12-07T09:42:44.938Z,23.03
2023-12-07T09:44:51.369Z,24.50
2023-12-07T09:46:55.236Z,22.93
2023-12-07T09:48:59.101Z,22.50
2023-12-07T09:51:04.358Z,20.37
2023-12-07T09:53:09.027Z,23.13
2023-12-07T09:55:19.224Z,19.73
2023-12-07T09:57:28.218Z,20.23
2023-12-07T09:59:33.909Z,26.20
2023-12-07T10:01:37.792Z,22.43
2023-12-07T10:03:43.835Z,20.03
2023-12-07T10:05:58.865Z,20.97
2023-12-07T10:08:02.618Z,19.03
2023-12-07T10:10:12.805Z,21.03
2023-12-07T10:12:17.741Z,18.00
2023-12-07T10:14:21.270Z,18.10
2023-12-07T10:16:26.215Z,21.30
2023-12-07T10:18:31.007Z,18.83
2023-12-07T10:20:35.001Z,19.83
2023-12-07T10:22:40.458Z,18.00
2023-12-07T10:24:46.359Z,19.10
2023-12-07T10:27:03.833Z,18.90
2023-12-07T10:29:17.547Z,20.83
2023-12-07T10:31:28.319Z,20.73
2023-12-07T10:33:31.970Z,20.23
2023-12-07T10:35:36.090Z,24.17
2023-12-07T10:37:40.170Z,22.20
2023-12-07T10:39:43.757Z,24.60
2023-12-07T10:41:47.991Z,26.00
2023-12-07T10:44:08.895Z,25.87
2023-12-07T10:46:12.772Z,28.03
2023-12-07T10:48:16.922Z,29.97
2023-12-07T10:50:21.833Z,30.57
2023-12-07T10:52:27.165Z,30.70
2023-12-07T10:54:37.388Z,30.27
2023-12-07T10:58:41.742Z,27.93
2023-12-07T11:00:49.169Z,30.13
2023-12-07T11:02:54.742Z,30.67
2023-12-07T11:05:14.149Z,29.57
2023-12-07T11:07:20.396Z,32.77
2023-12-07T11:09:29.594Z,29.23
2023-12-07T11:11:36.564Z,29.80
2023-12-07T11:13:40.847Z,33.63
2023-12-07T11:16:18.736Z,30.67
2023-12-07T11:18:22.831Z,30.33
2023-12-07T11:20:35.264Z,32.63
2023-12-07T11:22:39.317Z,30.40
2023-12-07T11:25:11.111Z,31.23
2023-12-07T11:27:14.195Z,32.10
2023-12-07T11:29:21.082Z,28.50
2023-12-07T11:31:30.417Z,27.47
2023-12-07T11:33:34.390Z,30.20
2023-12-07T11:36:05.153Z,31.27
2023-12-07T11:38:12.987Z,26.90
2023-12-07T11:40:19.630Z,30.83
2023-12-07T11:42:29.654Z,28.23
2023-12-07T12:09:02.762Z,37.57
2023-12-07T12:11:07.288Z,28.30
2023-12-07T12:13:13.078Z,25.00
2023-12-07T12:15:19.781Z,26.50
2023-12-07T12:17:29.094Z,31.27
2023-12-07T12:19:35.798Z,33.30
2023-12-07T12:21:42.874Z,40.57
2023-12-07T12:23:50.765Z,41.50
2023-12-07T12:26:01.288Z,43.37
2023-12-07T12:28:06.009Z,46.13
2023-12-07T12:34:14.554Z,43.33
2023-12-07T12:36:22.710Z,46.07
2023-12-07T12:38:31.799Z,49.10
2023-12-07T12:40:43.323Z,45.33
2023-12-07T12:43:03.539Z,50.00
2023-12-07T12:45:09.588Z,49.73
2023-12-07T12:47:13.758Z,50.07
2023-12-07T12:49:18.340Z,46.27
2023-12-07T12:51:23.708Z,47.00
2023-12-07T12:53:29.316Z,46.17
2023-12-07T12:55:44.467Z,46.30
2023-12-07T12:57:49.873Z,52.10
2023-12-07T13:03:23.851Z,48.97
2023-12-07T13:05:27.547Z,43.37
2023-12-07T13:07:32.548Z,46.03
2023-12-07T13:09:36.461Z,43.97
2023-12-07T13:11:39.199Z,43.87
2023-12-07T13:33:38.874Z,45.47
2023-12-07T13:35:48.870Z,43.30
2023-12-07T13:37:55.174Z,47.43
2023-12-07T13:43:26.003Z,49.53
2023-12-07T13:45:34.545Z,46.03
2023-12-07T13:47:47.666Z,52.23
2023-12-07T13:49:52.310Z,45.50
2023-12-07T14:00:05.265Z,40.87
2023-12-07T14:02:10.282Z,43.07
2023-12-07T14:04:23.908Z,41.27
2023-12-07T14:06:49.475Z,45.33
2023-12-07T14:08:53.105Z,40.47
2023-12-07T14:10:56.808Z,43.97
2023-12-07T14:13:13.471Z,35.83
2023-12-07T14:15:35.359Z,39.80
2023-12-07T14:17:53.162Z,39.17
2023-12-07T14:21:10.739Z,36.47
2023-12-07T14:23:24.479Z,40.37
2023-12-07T14:25:28.318Z,35.43
2023-12-07T14:27:32.170Z,42.63
2023-12-07T14:29:35.827Z,39.33
2023-12-07T14:31:39.697Z,36.57
2023-12-07T14:33:45.468Z,37.40
2023-12-07T14:35:50.233Z,38.53
2023-12-07T14:38:09.836Z,36.93
2023-12-07T14:40:18.775Z,34.67
2023-12-07T14:42:23.203Z,38.67
2023-12-07T14:44:29.832Z,37.13
2023-12-07T14:46:34.410Z,38.67
2023-12-07T14:48:39.865Z,34.83
2023-12-07T14:50:51.647Z,36.40
2023-12-07T14:52:58.358Z,36.97
2023-12-07T14:55:12.202Z,35.37
2023-12-07T14:57:17.176Z,35.10
2023-12-07T14:59:21.306Z,38.60
2023-12-07T15:01:25.146Z,36.70
2023-12-07T15:03:29.006Z,34.97
2023-12-07T15:05:33.391Z,37.90
2023-12-07T15:07:37.357Z,42.30
2023-12-07T15:13:09.158Z,46.77
2023-12-07T15:15:13.313Z,45.27
2023-12-07T15:17:17.462Z,44.83
2023-12-07T15:19:41.270Z,44.93
2023-12-07T15:21:51.755Z,44.27
2023-12-07T15:23:55.763Z,43.60
2023-12-07T15:25:59.656Z,40.57
2023-12-07T15:28:03.214Z,42.27
2023-12-07T15:30:24.735Z,41.30
2023-12-07T15:32:28.803Z,42.27
2023-12-07T15:34:38.883Z,45.00
2023-12-07T15:36:44.991Z,42.77
2023-12-07T15:38:51.618Z,49.77
2023-12-07T15:40:57.357Z,48.27
2023-12-07T15:46:28.471Z,46.10
2023-12-07T15:48:35.568Z,46.37
2023-12-07T15:50:39.450Z,45.20
2023-12-07T15:55:59.127Z,45.73
2023-12-07T15:58:04.002Z,43.90
2023-12-07T16:00:14.578Z,41.90
2023-12-07T16:04:44.930Z,26.13
2023-12-07T16:06:51.805Z,25.50
2023-12-07T16:08:59.363Z,25.47
2023-12-07T16:17:15.024Z,17.83
2023-12-07T16:19:19.715Z,16.77
2023-12-07T16:21:33.452Z,11.80
2023-12-07T16:23:37.466Z,13.50
2023-12-07T16:25:41.373Z,14.47
2023-12-07T16:27:47.067Z,14.47
2023-12-07T16:29:50.751Z,14.20
2023-12-07T16:31:54.502Z,15.03
2023-12-07T16:37:28.425Z,15.83
2023-12-07T16:39:33.549Z,13.47
2023-12-07T16:41:41.967Z,14.77
2023-12-07T16:44:28.659Z,14.70
2023-12-07T16:46:32.514Z,13.60
2023-12-07T16:48:36.973Z,14.33
2023-12-07T16:50:43.842Z,13.87
2023-12-07T16:53:35.008Z,15.60
2023-12-07T16:55:42.625Z,14.70
2023-12-07T16:57:46.950Z,14.33
2023-12-07T16:59:50.738Z,14.17
2023-12-07T17:04:13.839Z,13.23
2023-12-07T17:06:19.884Z,17.20
2023-12-07T17:08:24.565Z,15.20
2023-12-07T17:10:28.337Z,14.53
2023-12-07T17:12:33.598Z,13.17
2023-12-07T17:15:23.506Z,11.00
2023-12-07T17:17:27.648Z,11.43
2023-12-07T17:19:35.714Z,13.03
2023-12-07T17:21:44.878Z,11.93
2023-12-07T17:24:19.797Z,12.33
2023-12-07T17:26:23.913Z,11.90
2023-12-07T17:28:29.280Z,14.70
2023-12-07T17:30:33.156Z,14.20
2023-12-07T17:32:37.077Z,16.37
2023-12-07T17:34:42.823Z,17.13
2023-12-07T17:36:46.573Z,15.70
2023-12-07T17:38:52.855Z,13.43
2023-12-07T17:40:58.031Z,14.60
2023-12-07T17:44:15.148Z,13.67
2023-12-07T17:46:20.911Z,15.10
2023-12-07T17:48:24.897Z,14.90
2023-12-07T17:50:28.893Z,15.77
2023-12-07T17:52:34.276Z,13.10
2023-12-07T17:55:00.539Z,13.73
2023-12-07T17:57:04.502Z,15.83
2023-12-07T17:59:09.222Z,14.83
2023-12-07T18:01:28.439Z,14.80
2023-12-07T18:03:32.907Z,14.27
2023-12-07T18:05:36.974Z,14.50
2023-12-07T18:07:40.826Z,13.50
2023-12-07T18:09:44.969Z,13.60
2023-12-07T18:11:47.741Z,14.73
2023-12-07T18:13:58.989Z,13.10
2023-12-07T18:16:03.657Z,13.83
2023-12-07T18:18:07.619Z,14.57
2023-12-07T18:20:14.062Z,14.53
2023-12-07T18:22:17.910Z,14.70
2023-12-07T18:24:33.037Z,14.53
2023-12-07T18:26:38.548Z,13.70
2023-12-07T18:28:43.010Z,14.97
2023-12-07T18:30:46.940Z,13.47
2023-12-07T18:33:06.271Z,14.57
2023-12-07T18:35:12.564Z,15.23
2023-12-07T18:37:16.630Z,13.47
2023-12-07T18:39:20.832Z,16.37
2023-12-07T18:41:25.991Z,16.07
2023-12-07T18:43:31.101Z,16.40
2023-12-07T18:45:34.884Z,15.53
2023-12-07T18:47:39.183Z,15.73
2023-12-07T18:49:43.280Z,16.53
2023-12-07T18:51:48.595Z,16.63
2023-12-07T18:54:25.145Z,18.17
2023-12-07T18:56:29.606Z,17.50
2023-12-07T18:58:33.519Z,17.03
2023-12-07T19:00:37.414Z,17.27
2023-12-07T19:02:40.383Z,16.57
2023-12-07T19:04:45.260Z,17.30
2023-12-07T19:06:49.449Z,16.83
2023-12-07T19:08:53.875Z,17.07
2023-12-07T19:10:57.919Z,16.30
2023-12-07T19:13:02.639Z,15.87
2023-12-07T19:15:07.520Z,15.00
2023-12-07T19:17:11.584Z,18.73
2023-12-07T19:19:14.525Z,17.33
2023-12-07T19:21:18.498Z,18.43
2023-12-07T19:23:26.336Z,17.23
2023-12-07T19:25:30.218Z,17.80
2023-12-07T19:27:44.995Z,19.37
2023-12-07T19:29:48.896Z,17.23
2023-12-07T19:31:52.792Z,18.80
2023-12-07T19:33:59.125Z,18.17
2023-12-07T19:36:04.692Z,18.50
2023-12-07T19:38:08.741Z,18.90
2023-12-07T19:40:16.037Z,18.33
2023-12-07T19:42:21.140Z,16.93
2023-12-07T19:44:31.546Z,17.73
2023-12-07T19:46:36.254Z,17.10
2023-12-07T19:48:41.139Z,17.93
2023-12-07T19:50:46.522Z,15.83
2023-12-07T19:52:51.183Z,17.23
2023-12-07T19:54:56.501Z,21.13
2023-12-07T19:57:03.244Z,19.00
2023-12-07T19:59:09.000Z,20.77
2023-12-07T20:01:12.831Z,19.60
2023-12-07T20:03:17.099Z,18.27
2023-12-07T20:05:21.667Z,17.30
2023-12-07T20:07:25.877Z,19.77
2023-12-07T20:09:32.329Z,18.43
2023-12-07T20:11:37.222Z,17.80
2023-12-07T20:13:42.848Z,19.67
2023-12-07T20:15:46.760Z,20.57
2023-12-07T20:17:51.686Z,22.17
2023-12-07T20:19:55.292Z,18.83
2023-12-07T20:22:01.697Z,19.93
2023-12-07T20:24:07.627Z,22.10
2023-12-07T20:26:16.261Z,22.37
2023-12-07T20:28:20.175Z,21.57
2023-12-07T20:30:25.580Z,22.97
2023-12-07T20:32:29.655Z,21.97
2023-12-07T20:34:43.814Z,21.50
2023-12-07T20:36:50.429Z,20.77
2023-12-07T20:38:54.522Z,22.73
2023-12-07T20:40:57.387Z,24.13
2023-12-07T20:43:01.236Z,25.83
2023-12-07T20:45:08.197Z,23.77
2023-12-07T20:47:13.658Z,24.27
2023-12-07T20:49:18.014Z,24.50
2023-12-07T20:51:22.464Z,26.40
2023-12-07T20:53:27.592Z,27.93
2023-12-07T20:55:33.482Z,23.57
2023-12-07T20:57:37.604Z,23.27
2023-12-07T20:59:42.226Z,25.27
2023-12-07T21:01:46.102Z,23.33
2023-12-07T21:03:59.228Z,23.93
2023-12-07T21:06:03.375Z,25.33
2023-12-07T21:08:06.726Z,26.50
2023-12-07T21:10:11.642Z,25.00
2023-12-07T21:12:15.550Z,26.20
2023-12-07T21:14:33.290Z,26.67
2023-12-07T21:16:37.408Z,27.03
2023-12-07T21:18:41.798Z,23.87
2023-12-07T21:20:47.750Z,28.50
2023-12-07T21:22:52.307Z,27.03
2023-12-07T21:24:57.990Z,27.03
2023-12-07T21:27:01.966Z,26.43
2023-12-07T21:29:05.707Z,24.23
2023-12-07T21:31:09.724Z,26.17
2023-12-07T21:33:18.642Z,23.83
2023-12-07T21:35:22.704Z,27.60
2023-12-07T21:37:27.170Z,25.50
2023-12-07T21:39:31.174Z,26.20
2023-12-07T21:41:35.381Z,28.33
2023-12-07T21:43:40.730Z,25.77
2023-12-07T21:45:44.821Z,24.40
2023-12-07T21:47:48.898Z,26.60
2023-12-07T21:49:51.974Z,25.00
2023-12-07T21:51:56.103Z,27.30
2023-12-07T21:54:02.838Z,25.67
2023-12-07T21:56:07.542Z,23.57
2023-12-07T21:58:11.413Z,23.97
2023-12-07T22:00:17.415Z,26.17
2023-12-07T22:02:20.619Z,24.70
2023-12-07T22:04:25.947Z,25.17
2023-12-07T22:06:30.160Z,25.73
2023-12-07T22:08:33.959Z,24.97
2023-12-07T22:10:39.527Z,25.00
2023-12-07T22:12:44.189Z,26.73
2023-12-07T22:14:48.220Z,24.93
2023-12-07T22:16:52.415Z,22.77
2023-12-07T22:18:58.451Z,25.80
2023-12-07T22:21:01.568Z,25.53
2023-12-07T22:23:06.746Z,23.57
2023-12-07T22:25:10.984Z,23.93
2023-12-07T22:27:16.447Z,25.80
2023-12-07T22:29:20.301Z,23.27
2023-12-07T22:31:24.096Z,23.80
2023-12-07T22:33:30.431Z,26.13
2023-12-07T22:35:34.614Z,23.80
2023-12-07T22:37:38.565Z,23.40
2023-12-07T22:39:41.345Z,22.17
2023-12-07T22:41:46.097Z,21.37
2023-12-07T22:43:52.738Z,22.33
2023-12-07T22:45:56.515Z,22.90
2023-12-07T22:48:00.819Z,22.50
2023-12-07T22:50:05.063Z,22.23
2023-12-07T22:52:09.414Z,22.17
2023-12-07T22:54:21.042Z,23.20
2023-12-07T22:56:25.042Z,21.27
2023-12-07T22:58:29.230Z,23.03
2023-12-07T23:00:34.817Z,23.60
2023-12-07T23:02:38.672Z,24.00
2023-12-07T23:05:01.747Z,22.30
2023-12-07T23:07:05.974Z,23.17
2023-12-07T23:09:09.677Z,21.90
2023-12-07T23:11:14.585Z,23.10
2023-12-07T23:13:19.685Z,23.57
2023-12-07T23:15:23.488Z,22.10
2023-12-07T23:17:29.107Z,21.77
2023-12-07T23:19:33.011Z,23.70
2023-12-07T23:21:37.031Z,20.47
2023-12-07T23:23:42.230Z,19.93
2023-12-07T23:25:46.275Z,20.33
2023-12-07T23:27:49.855Z,21.43
2023-12-07T23:29:55.220Z,22.00
2023-12-07T23:32:00.745Z,22.90
2023-12-07T23:34:13.766Z,24.10
2023-12-07T23:36:17.728Z,20.13
2023-12-07T23:38:20.531Z,23.03
2023-12-07T23:40:24.115Z,21.57
2023-12-07T23:42:26.934Z,21.23
2023-12-07T23:45:01.597Z,21.97
2023-12-07T23:47:05.149Z,22.37
2023-12-07T23:49:08.943Z,21.60
2023-12-07T23:51:13.082Z,21.33
2023-12-07T23:53:17.085Z,21.27
2023-12-07T23:55:21.110Z,21.90
2023-12-07T23:57:25.293Z,23.10
2023-12-07T23:59:28.329Z,23.33
